Time;durP1;ratioP1;P1;durP2;ratioP2;P2;SDS_P1;SDS_P2;PMS_P1;PMS_P2;Temp;Humidity;BMP_temperature;BMP_pressure;BME280_temperature;BME280_humidity;BME280_pressure;Samples;Min_cycle;Max_cycle;Signal;HPM_P1;HPM_P2
2022/09/23 00:01:10;;;;;;;15.32;13.77;;;10.10;99.90;;;;;;5064989;28;20056;-48
2022/09/23 00:03:40;;;;;;;15.63;14.23;;;10.10;99.90;;;;;;5051439;28;20115;-50
2022/09/23 00:06:14;;;;;;;15.02;13.63;;;10.10;99.90;;;;;;5081231;28;20051;-52
2022/09/23 00:08:40;;;;;;;15.13;13.63;;;10.10;99.90;;;;;;5081336;28;20048;-48
2022/09/23 00:11:19;;;;;;;15.98;14.57;;;10.10;99.90;;;;;;5081889;28;20218;-49
2022/09/23 00:13:47;;;;;;;16.83;14.00;;;10.10;99.90;;;;;;5050863;28;20162;-48
2022/09/23 00:16:16;;;;;;;14.25;12.95;;;10.10;99.90;;;;;;5078141;28;20060;-48
2022/09/23 00:18:43;;;;;;;15.27;13.75;;;10.10;99.90;;;;;;5078165;28;20083;-48
2022/09/23 00:21:11;;;;;;;15.63;14.32;;;10.10;99.90;;;;;;5051177;28;20052;-50
2022/09/23 00:23:39;;;;;;;14.65;13.27;;;10.10;99.90;;;;;;5077988;28;20094;-47
2022/09/23 00:26:08;;;;;;;16.05;14.48;;;10.10;99.90;;;;;;5073720;28;20067;-49
2022/09/23 00:28:35;;;;;;;17.17;14.88;;;10.10;99.90;;;;;;5069894;28;20118;-47
2022/09/23 00:31:06;;;;;;;15.77;14.38;;;10.10;99.90;;;;;;5062380;28;20052;-50
2022/09/23 00:33:32;;;;;;;17.10;15.45;;;10.10;99.90;;;;;;5044182;28;20056;-51
2022/09/23 00:36:00;;;;;;;16.95;15.50;;;10.10;99.90;;;;;;5061638;28;20052;-47
2022/09/23 00:38:26;;;;;;;17.02;15.25;;;10.10;99.90;;;;;;5043794;28;20053;-48
2022/09/23 00:40:52;;;;;;;17.23;15.50;;;10.10;99.90;;;;;;5061152;28;20064;-47
2022/09/23 00:43:18;;;;;;;17.75;16.15;;;10.10;99.90;;;;;;5061484;28;20045;-48
2022/09/23 00:45:49;;;;;;;18.00;16.25;;;10.10;99.90;;;;;;5061052;28;20076;-48
2022/09/23 00:48:19;;;;;;;18.42;16.73;;;10.10;99.90;;;;;;5060998;28;20071;-49
2022/09/23 00:50:51;;;;;;;18.63;16.90;;;10.00;99.90;;;;;;5061661;28;20087;-51
2022/09/23 00:53:21;;;;;;;18.30;16.50;;;10.10;99.90;;;;;;5075656;28;20040;-47
2022/09/23 00:55:52;;;;;;;17.65;16.05;;;10.00;99.90;;;;;;5060453;28;20044;-47
2022/09/23 00:58:25;;;;;;;19.35;17.58;;;10.00;99.90;;;;;;5074602;28;20055;-49
2022/09/23 01:00:52;;;;;;;20.17;17.88;;;10.00;99.90;;;;;;5079175;28;20053;-49
2022/09/23 01:03:18;;;;;;;20.42;18.23;;;10.00;99.90;;;;;;5049250;28;20090;-51
2022/09/23 01:05:45;;;;;;;19.27;17.45;;;10.00;99.90;;;;;;5058178;28;20139;-52
2022/09/23 01:08:13;;;;;;;21.33;19.17;;;10.00;99.90;;;;;;5060758;28;20063;-54
2022/09/23 01:11:08;;;;;;;21.33;19.10;;;10.00;99.90;;;;;;5052304;28;20052;-51
2022/09/23 01:13:58;;;;;;;20.42;18.38;;;10.00;99.90;;;;;;5044195;28;20056;-48
2022/09/23 01:16:50;;;;;;;19.92;18.02;;;9.90;99.90;;;;;;5054191;28;20048;-51
2022/09/23 01:19:25;;;;;;;20.25;18.35;;;10.00;99.90;;;;;;5048020;28;20106;-48
2022/09/23 01:22:20;;;;;;;19.77;17.23;;;10.00;99.90;;;;;;5055005;28;20832;-48
2022/09/23 01:25:18;;;;;;;19.40;17.60;;;10.00;99.90;;;;;;5056585;28;20055;-47
2022/09/23 01:27:58;;;;;;;19.45;17.65;;;10.00;99.90;;;;;;4975443;28;20224;-48
2022/09/23 01:30:48;;;;;;;21.48;19.27;;;10.00;99.90;;;;;;4961127;28;20556;-48
2022/09/23 01:33:38;;;;;;;20.35;18.33;;;10.00;99.90;;;;;;4978210;28;20133;-50
2022/09/23 01:36:25;;;;;;;19.65;17.63;;;10.10;99.90;;;;;;4966279;28;20466;-47
2022/09/23 01:39:05;;;;;;;20.20;18.23;;;10.10;99.90;;;;;;4964924;28;20985;-47
2022/09/23 01:41:46;;;;;;;20.45;18.52;;;10.00;99.90;;;;;;4969131;28;20089;-50
2022/09/23 01:44:23;;;;;;;22.23;19.95;;;10.10;99.90;;;;;;4964499;28;20709;-50
2022/09/23 01:46:58;;;;;;;20.63;18.75;;;10.10;99.90;;;;;;4964034;28;20817;-47
2022/09/23 01:49:34;;;;;;;23.52;21.23;;;10.00;99.90;;;;;;4949784;28;20666;-48
2022/09/23 01:52:14;;;;;;;21.40;19.45;;;10.00;99.90;;;;;;4969458;28;20062;-50
2022/09/23 01:54:59;;;;;;;21.63;19.63;;;10.00;99.90;;;;;;4977063;28;20050;-49
2022/09/23 01:57:32;;;;;;;22.63;20.30;;;9.90;99.90;;;;;;4976151;28;20069;-47
2022/09/23 02:00:07;;;;;;;24.17;21.98;;;9.90;99.90;;;;;;4982643;28;20062;-48
2022/09/23 02:02:48;;;;;;;22.98;20.75;;;9.80;99.90;;;;;;4966141;28;20054;-49
2022/09/23 02:05:52;;;;;;;22.25;20.17;;;9.80;99.90;;;;;;5059193;28;20151;-50
2022/09/23 02:08:39;;;;;;;24.02;21.83;;;9.70;99.90;;;;;;5071568;28;20096;-47
2022/09/23 02:11:12;;;;;;;22.98;20.67;;;9.70;99.90;;;;;;5071122;28;20100;-49
2022/09/23 02:14:03;;;;;;;23.80;21.23;;;9.60;99.90;;;;;;5078353;28;20048;-52
2022/09/23 02:16:38;;;;;;;24.48;22.08;;;9.60;99.90;;;;;;5075993;28;20044;-46
2022/09/23 02:19:30;;;;;;;24.25;21.95;;;9.60;99.90;;;;;;5072848;28;20048;-51
2022/09/23 02:22:15;;;;;;;24.63;22.20;;;9.50;99.90;;;;;;5062519;28;20671;-49
2022/09/23 02:24:41;;;;;;;26.17;23.38;;;9.40;99.90;;;;;;5061140;28;20060;-51
2022/09/23 02:27:20;;;;;;;23.05;20.95;;;9.40;99.90;;;;;;5083380;28;20051;-50
2022/09/23 02:30:12;;;;;;;22.65;20.65;;;9.30;99.90;;;;;;5055989;28;20148;-51
2022/09/23 02:32:47;;;;;;;24.50;22.17;;;9.30;99.90;;;;;;5073052;28;20172;-51
2022/09/23 02:35:23;;;;;;;24.83;22.52;;;9.30;99.90;;;;;;5081756;28;20134;-47
2022/09/23 02:38:13;;;;;;;24.27;21.98;;;9.30;99.90;;;;;;5076290;28;20052;-47
2022/09/23 02:40:54;;;;;;;23.75;21.33;;;9.20;99.90;;;;;;5073043;28;20056;-49
2022/09/23 02:43:37;;;;;;;24.73;22.30;;;9.20;99.90;;;;;;5083296;28;20044;-46
2022/09/23 02:46:05;;;;;;;24.95;22.73;;;9.20;99.90;;;;;;5073359;28;20114;-49
2022/09/23 02:48:40;;;;;;;24.33;21.95;;;9.20;99.90;;;;;;5081149;28;20048;-47
2022/09/23 02:51:07;;;;;;;23.92;21.73;;;9.10;99.90;;;;;;5071600;28;20105;-48
2022/09/23 02:53:33;;;;;;;25.83;23.35;;;9.10;99.90;;;;;;5054376;28;20070;-48
2022/09/23 02:56:01;;;;;;;24.92;22.65;;;9.10;99.90;;;;;;5074130;28;20036;-46
2022/09/23 02:58:28;;;;;;;25.73;23.10;;;9.10;99.90;;;;;;5073466;28;20830;-47
2022/09/23 03:01:31;;;;;;;25.38;23.08;;;9.10;99.90;;;;;;5075508;28;20055;-50
2022/09/23 03:04:31;;;;;;;26.15;23.48;;;9.00;99.90;;;;;;5070093;28;20064;-47
2022/09/23 03:07:11;;;;;;;26.75;24.05;;;9.00;99.90;;;;;;4954994;28;20516;-48
2022/09/23 03:09:37;;;;;;;24.40;22.05;;;9.00;99.90;;;;;;4979403;28;20155;-48
2022/09/23 03:12:33;;;;;;;26.00;23.42;;;9.00;99.90;;;;;;4960601;28;20142;-47
2022/09/23 03:15:24;;;;;;;26.08;23.58;;;9.00;99.90;;;;;;4960253;28;20054;-49
2022/09/23 03:18:12;;;;;;;25.45;23.10;;;8.90;99.90;;;;;;4956429;28;20415;-47
2022/09/23 03:20:56;;;;;;;24.73;22.42;;;8.90;99.90;;;;;;4960965;28;20852;-47
2022/09/23 03:23:35;;;;;;;27.33;24.50;;;8.90;99.90;;;;;;4956484;28;20419;-49
2022/09/23 03:26:11;;;;;;;27.38;24.45;;;8.90;99.90;;;;;;4961274;28;20055;-47
2022/09/23 03:28:38;;;;;;;25.48;22.98;;;8.80;99.90;;;;;;4959931;28;20063;-51
2022/09/23 03:31:04;;;;;;;26.42;23.95;;;8.80;99.90;;;;;;4961485;28;20559;-47
2022/09/23 03:33:32;;;;;;;26.05;23.27;;;8.80;99.90;;;;;;4960384;28;20093;-50
2022/09/23 03:39:03;;;;;;;24.67;22.48;;;8.80;99.90;;;;;;4957889;28;20185;-48
2022/09/23 03:41:40;;;;;;;25.60;23.00;;;8.80;99.90;;;;;;4962090;28;20074;-47
2022/09/23 03:44:07;;;;;;;26.35;23.90;;;8.80;99.90;;;;;;4992185;28;20151;-50
2022/09/23 03:46:34;;;;;;;28.17;25.48;;;8.80;99.90;;;;;;5029686;28;20053;-52
2022/09/23 03:49:14;;;;;;;26.55;23.95;;;8.70;99.90;;;;;;5039802;28;20676;-50
2022/09/23 03:51:40;;;;;;;25.40;22.80;;;8.70;99.90;;;;;;5018600;28;20059;-48
2022/09/23 03:54:06;;;;;;;26.45;23.60;;;8.70;99.90;;;;;;5019735;28;20055;-52
2022/09/23 03:56:32;;;;;;;25.73;23.10;;;8.70;99.90;;;;;;5082117;28;20083;-48
2022/09/23 03:58:59;;;;;;;26.63;23.92;;;8.70;99.90;;;;;;5081542;28;20501;-47
2022/09/23 04:01:24;;;;;;;25.10;22.70;;;8.70;99.90;;;;;;5083275;28;20055;-47
2022/09/23 04:03:51;;;;;;;25.75;22.77;;;8.70;99.90;;;;;;5081624;28;20083;-49
2022/09/23 04:06:21;;;;;;;26.88;24.25;;;8.70;99.90;;;;;;5081831;28;20490;-46
2022/09/23 04:08:47;;;;;;;25.10;22.83;;;8.60;99.90;;;;;;5058997;28;20137;-47
2022/09/23 04:11:14;;;;;;;28.63;25.65;;;8.60;99.90;;;;;;5081529;28;20087;-48
2022/09/23 04:13:40;;;;;;;26.08;23.52;;;8.60;99.90;;;;;;5076308;28;20075;-47
2022/09/23 04:16:06;;;;;;;26.85;24.25;;;8.60;99.90;;;;;;5074445;28;20159;-47
2022/09/23 04:18:32;;;;;;;25.58;23.33;;;8.60;99.90;;;;;;5048883;28;20056;-46
2022/09/23 04:20:58;;;;;;;29.27;26.23;;;8.60;99.90;;;;;;5075591;28;20059;-46
2022/09/23 04:23:27;;;;;;;26.83;24.25;;;8.60;99.90;;;;;;5077521;28;20517;-48
2022/09/23 04:25:53;;;;;;;27.65;24.92;;;8.60;99.90;;;;;;5079209;28;20048;-48
2022/09/23 04:28:20;;;;;;;26.20;23.52;;;8.60;99.90;;;;;;5081637;28;20117;-48
2022/09/23 04:30:47;;;;;;;26.65;23.70;;;8.60;99.90;;;;;;5056251;28;20040;-47
2022/09/23 04:33:15;;;;;;;26.85;24.30;;;8.60;99.90;;;;;;5063004;28;20305;-48
2022/09/23 04:35:44;;;;;;;25.58;23.15;;;8.60;99.90;;;;;;5077437;28;20052;-49
2022/09/23 04:38:14;;;;;;;26.50;23.90;;;8.60;99.90;;;;;;5070347;28;20048;-50
2022/09/23 04:40:40;;;;;;;25.30;22.85;;;8.60;99.90;;;;;;5058802;28;20059;-48
2022/09/23 04:43:06;;;;;;;25.85;23.35;;;8.60;99.90;;;;;;5078929;28;20397;-49
2022/09/23 04:45:32;;;;;;;25.95;23.23;;;8.60;99.90;;;;;;5057452;28;20040;-51
2022/09/23 04:48:01;;;;;;;28.02;23.33;;;8.60;99.90;;;;;;5081541;28;20048;-46
2022/09/23 04:50:27;;;;;;;25.00;22.70;;;8.60;99.90;;;;;;5057469;28;20048;-47
2022/09/23 04:52:54;;;;;;;24.77;22.42;;;8.60;99.90;;;;;;5081230;28;20047;-49
2022/09/23 04:55:20;;;;;;;26.58;23.98;;;8.60;99.90;;;;;;5078797;28;20048;-49
2022/09/23 04:57:46;;;;;;;26.40;23.77;;;8.60;99.90;;;;;;5081125;28;20150;-51
2022/09/23 05:00:16;;;;;;;25.15;22.88;;;8.60;99.90;;;;;;5082538;28;20431;-50
2022/09/23 05:02:44;;;;;;;26.83;24.13;;;8.60;99.90;;;;;;5076607;28;20040;-48
2022/09/23 05:05:10;;;;;;;25.40;22.90;;;8.70;99.90;;;;;;5072408;28;20514;-47
2022/09/23 05:07:37;;;;;;;27.15;23.63;;;8.70;99.90;;;;;;5074641;28;20056;-49
2022/09/23 05:10:03;;;;;;;26.58;23.98;;;8.70;99.90;;;;;;5066910;28;20094;-52
2022/09/23 05:12:29;;;;;;;25.65;22.95;;;8.70;99.90;;;;;;5056860;28;20507;-47
2022/09/23 05:14:55;;;;;;;26.58;24.15;;;8.70;99.90;;;;;;5073430;28;20139;-51
2022/09/23 05:17:21;;;;;;;24.60;22.27;;;8.80;99.90;;;;;;5050917;28;20060;-48
2022/09/23 05:19:47;;;;;;;24.38;22.08;;;8.80;99.90;;;;;;5063595;28;20088;-47
2022/09/23 05:22:13;;;;;;;26.25;23.58;;;8.80;99.90;;;;;;5079827;28;20087;-46
2022/09/23 05:24:39;;;;;;;27.05;24.35;;;8.80;99.90;;;;;;5070147;28;20134;-46
2022/09/23 05:27:06;;;;;;;25.25;22.75;;;8.80;99.90;;;;;;5079280;28;20612;-48
2022/09/23 05:29:33;;;;;;;26.13;23.40;;;8.80;99.90;;;;;;5079284;28;20044;-49
2022/09/23 05:32:00;;;;;;;26.15;23.48;;;8.70;99.90;;;;;;5074729;28;20063;-50
2022/09/23 05:34:26;;;;;;;26.35;23.85;;;8.80;99.90;;;;;;5074823;28;20080;-46
2022/09/23 05:36:52;;;;;;;25.23;22.73;;;8.80;99.90;;;;;;5068074;28;20048;-48
2022/09/23 05:39:18;;;;;;;25.08;22.70;;;8.80;99.90;;;;;;5067891;28;20048;-48
2022/09/23 05:41:44;;;;;;;25.55;23.08;;;8.80;99.90;;;;;;5054018;28;20052;-48
2022/09/23 05:44:10;;;;;;;26.25;23.45;;;8.80;99.90;;;;;;5074885;28;20626;-48
2022/09/23 05:46:37;;;;;;;27.80;25.10;;;8.90;99.90;;;;;;5074273;28;20509;-47
2022/09/23 05:49:04;;;;;;;26.33;24.02;;;8.90;99.90;;;;;;5069664;28;20226;-48
2022/09/23 05:51:31;;;;;;;26.05;23.55;;;8.90;99.90;;;;;;5067272;28;20048;-47
2022/09/23 05:53:58;;;;;;;26.48;23.92;;;8.90;99.90;;;;;;5073282;28;20040;-47
2022/09/23 05:56:26;;;;;;;25.55;23.15;;;9.00;99.90;;;;;;5073221;28;20592;-47
2022/09/23 05:58:55;;;;;;;26.13;23.63;;;9.00;99.90;;;;;;5073697;28;20051;-50
2022/09/23 06:01:25;;;;;;;26.60;24.20;;;9.10;99.90;;;;;;5072611;28;20910;-50
2022/09/23 06:03:53;;;;;;;25.27;22.98;;;9.10;99.90;;;;;;5061016;28;20049;-46
2022/09/23 06:06:24;;;;;;;27.38;24.73;;;9.30;99.90;;;;;;5074431;28;20456;-54
2022/09/23 06:08:51;;;;;;;25.92;23.42;;;9.60;99.90;;;;;;5079570;28;20060;-50
2022/09/23 06:11:16;;;;;;;25.98;23.45;;;9.90;99.90;;;;;;5068645;28;20127;-49
2022/09/23 06:13:43;;;;;;;25.25;22.83;;;10.10;99.90;;;;;;5068524;28;20146;-49
2022/09/23 06:16:12;;;;;;;25.33;23.00;;;10.20;99.90;;;;;;5067909;28;20040;-47
2022/09/23 06:18:40;;;;;;;24.27;21.98;;;10.20;99.90;;;;;;5069510;28;20053;-47
2022/09/23 06:21:08;;;;;;;23.90;21.75;;;10.20;99.90;;;;;;5071146;28;20044;-46
2022/09/23 06:23:34;;;;;;;24.60;22.10;;;10.10;99.90;;;;;;5073264;28;20589;-48
2022/09/23 06:26:03;;;;;;;24.60;22.23;;;10.10;99.90;;;;;;5080866;28;20050;-50
2022/09/23 06:28:31;;;;;;;24.50;22.30;;;10.00;99.90;;;;;;5076749;28;20040;-48
2022/09/23 06:31:03;;;;;;;24.00;21.55;;;10.00;99.90;;;;;;5063744;28;20079;-46
2022/09/23 06:33:29;;;;;;;23.80;21.50;;;10.00;99.90;;;;;;5070580;28;20044;-49
2022/09/23 06:35:57;;;;;;;23.13;21.13;;;10.00;99.90;;;;;;5075285;28;20052;-49
2022/09/23 06:38:23;;;;;;;24.45;22.23;;;10.00;99.90;;;;;;5075576;28;20674;-48
2022/09/23 06:40:54;;;;;;;24.10;21.75;;;10.00;99.90;;;;;;5076196;28;20143;-48
2022/09/23 06:43:22;;;;;;;23.55;21.30;;;10.00;99.90;;;;;;5068368;28;20127;-48
2022/09/23 06:46:13;;;;;;;22.88;20.63;;;10.00;99.90;;;;;;5070451;28;20271;-48
2022/09/23 06:48:39;;;;;;;23.85;21.50;;;10.00;99.90;;;;;;4981624;28;20095;-48
2022/09/23 06:51:11;;;;;;;23.98;21.52;;;10.10;99.90;;;;;;4981284;28;20066;-47
2022/09/23 06:53:42;;;;;;;24.10;21.90;;;10.10;99.90;;;;;;4977960;28;20054;-51
2022/09/23 06:56:10;;;;;;;24.17;21.98;;;10.10;99.90;;;;;;4978900;28;20153;-46
2022/09/23 06:58:37;;;;;;;23.80;21.60;;;10.20;99.90;;;;;;4980558;28;20457;-49
2022/09/23 07:01:11;;;;;;;24.75;22.38;;;10.20;99.90;;;;;;4979484;28;20069;-46
2022/09/23 07:03:38;;;;;;;23.23;20.98;;;10.20;99.90;;;;;;4961515;28;20509;-49
2022/09/23 07:06:06;;;;;;;24.80;22.50;;;10.30;99.90;;;;;;4963047;28;20142;-48
2022/09/23 07:08:33;;;;;;;24.33;21.88;;;10.30;99.90;;;;;;4979287;28;20515;-46
2022/09/23 07:11:02;;;;;;;22.27;20.08;;;10.40;99.90;;;;;;4980654;28;20718;-51
2022/09/23 07:13:29;;;;;;;24.02;21.48;;;10.50;99.90;;;;;;4980117;28;20101;-47
2022/09/23 07:16:00;;;;;;;23.10;20.88;;;10.60;99.90;;;;;;4962467;28;20050;-48
2022/09/23 07:18:31;;;;;;;23.55;21.30;;;10.70;99.90;;;;;;4946597;28;20152;-50
2022/09/23 07:21:06;;;;;;;21.63;19.63;;;10.90;99.90;;;;;;4981013;28;20046;-49
2022/09/23 07:23:33;;;;;;;23.25;20.92;;;11.00;99.90;;;;;;4978242;28;20054;-49
2022/09/23 07:26:08;;;;;;;22.05;20.13;;;11.20;99.90;;;;;;5035620;28;20895;-48
2022/09/23 07:28:35;;;;;;;21.92;19.75;;;11.40;99.90;;;;;;5073113;28;20078;-50
2022/09/23 07:31:06;;;;;;;21.13;19.23;;;11.50;99.90;;;;;;5072089;28;20048;-51
2022/09/23 07:33:34;;;;;;;21.38;19.33;;;11.60;99.90;;;;;;5082855;28;20048;-49
2022/09/23 07:36:09;;;;;;;21.30;19.33;;;11.70;99.90;;;;;;5072144;28;20044;-47
2022/09/23 07:38:36;;;;;;;22.23;20.02;;;11.70;99.90;;;;;;5056289;28;20119;-48
2022/09/23 07:41:09;;;;;;;20.75;18.70;;;11.80;99.90;;;;;;5056993;28;20052;-49
2022/09/23 07:43:36;;;;;;;21.38;19.25;;;11.80;99.90;;;;;;5081389;28;20113;-51
2022/09/23 07:46:09;;;;;;;21.08;18.50;;;11.70;99.90;;;;;;5075707;28;20442;-46
2022/09/23 07:48:37;;;;;;;20.67;18.67;;;11.80;99.90;;;;;;5075845;28;20558;-49
2022/09/23 07:51:12;;;;;;;21.05;19.17;;;11.70;99.90;;;;;;5066459;28;20052;-47
2022/09/23 07:53:38;;;;;;;20.80;18.90;;;11.70;99.90;;;;;;5082107;28;20060;-46
2022/09/23 07:56:05;;;;;;;20.92;19.02;;;11.80;99.90;;;;;;5077041;28;20044;-46
2022/09/23 07:58:32;;;;;;;19.80;18.00;;;11.80;99.90;;;;;;5062817;28;20113;-47
2022/09/23 08:01:05;;;;;;;19.70;17.80;;;11.80;99.90;;;;;;5074579;28;20051;-48
2022/09/23 08:03:32;;;;;;;20.10;18.25;;;11.90;99.90;;;;;;5078211;28;20043;-49
2022/09/23 08:06:12;;;;;;;21.05;19.15;;;11.90;99.90;;;;;;5056584;28;20114;-47
2022/09/23 08:08:42;;;;;;;20.55;18.52;;;11.90;99.90;;;;;;5067075;28;20048;-47
2022/09/23 08:11:10;;;;;;;20.55;18.70;;;12.00;99.90;;;;;;5069157;28;20123;-47
2022/09/23 08:13:36;;;;;;;21.67;19.60;;;12.20;99.90;;;;;;5077917;28;20040;-52
2022/09/23 08:16:03;;;;;;;21.23;18.88;;;12.30;99.90;;;;;;5071926;28;20049;-47
2022/09/23 08:18:29;;;;;;;20.85;18.40;;;12.40;99.90;;;;;;5075834;28;20062;-48
2022/09/23 08:20:55;;;;;;;23.08;19.25;;;12.60;99.90;;;;;;5070626;28;20131;-49
2022/09/23 08:23:21;;;;;;;19.13;17.30;;;12.60;99.90;;;;;;5073994;28;20049;-49
2022/09/23 08:25:58;;;;;;;20.38;18.38;;;12.70;99.90;;;;;;5066037;28;20761;-47
2022/09/23 08:28:30;;;;;;;22.10;18.52;;;12.90;99.90;;;;;;5065784;28;20082;-48
2022/09/23 08:30:56;;;;;;;20.00;18.02;;;12.90;99.90;;;;;;5068037;28;20117;-49
2022/09/23 08:33:23;;;;;;;19.15;17.23;;;12.90;99.90;;;;;;5068849;28;20048;-48
2022/09/23 08:35:59;;;;;;;18.38;16.75;;;13.00;99.90;;;;;;5066944;28;20460;-47
2022/09/23 08:38:25;;;;;;;18.15;16.55;;;13.10;99.90;;;;;;5081688;28;20046;-48
2022/09/23 08:40:54;;;;;;;21.27;16.92;;;13.20;99.90;;;;;;5075464;28;20043;-49
2022/09/23 08:43:30;;;;;;;18.35;16.83;;;13.30;99.90;;;;;;5081642;28;20824;-49
2022/09/23 08:46:01;;;;;;;19.15;17.35;;;13.50;99.90;;;;;;5078474;28;20047;-48
2022/09/23 08:48:30;;;;;;;17.83;16.25;;;13.60;99.90;;;;;;5060831;28;20056;-47
2022/09/23 08:51:03;;;;;;;19.05;17.23;;;13.70;99.90;;;;;;5059889;28;20528;-49
2022/09/23 08:53:34;;;;;;;18.25;16.45;;;13.80;99.90;;;;;;5076584;28;20487;-47
2022/09/23 08:56:24;;;;;;;16.73;15.02;;;13.90;99.90;;;;;;5036009;28;20149;-47
2022/09/23 08:59:12;;;;;;;16.83;15.23;;;14.00;99.90;;;;;;5053852;28;20147;-48
2022/09/23 09:01:45;;;;;;;24.70;17.70;;;14.10;99.90;;;;;;5062689;28;20208;-49
2022/09/23 09:04:22;;;;;;;17.15;15.55;;;14.10;99.90;;;;;;5078669;28;20080;-48
2022/09/23 09:07:05;;;;;;;17.02;15.35;;;14.10;99.90;;;;;;5072879;28;20044;-47
2022/09/23 09:09:36;;;;;;;18.05;16.10;;;14.10;99.90;;;;;;5054284;28;20054;-49
2022/09/23 09:12:13;;;;;;;17.80;15.98;;;14.10;99.90;;;;;;5055120;28;20052;-50
2022/09/23 09:14:55;;;;;;;18.02;16.27;;;14.10;99.90;;;;;;5029840;28;20063;-47
2022/09/23 09:17:52;;;;;;;17.45;15.55;;;14.20;99.90;;;;;;5057134;28;20057;-48
2022/09/23 09:21:07;;;;;;;18.83;16.45;;;14.20;99.90;;;;;;5052897;28;20040;-48
2022/09/23 09:23:56;;;;;;;19.70;17.70;;;14.20;99.90;;;;;;4988567;28;20064;-46
2022/09/23 09:26:28;;;;;;;17.65;15.88;;;14.20;99.90;;;;;;4998447;28;20058;-47
2022/09/23 09:29:01;;;;;;;18.70;16.67;;;14.20;99.90;;;;;;4962306;28;20188;-47
2022/09/23 09:31:45;;;;;;;20.48;18.23;;;14.10;99.90;;;;;;4996015;28;20050;-49
2022/09/23 09:34:27;;;;;;;19.40;17.60;;;14.10;99.90;;;;;;4969272;28;20071;-47
2022/09/23 09:37:05;;;;;;;19.08;17.30;;;14.10;99.90;;;;;;4984401;28;20092;-47
2022/09/23 09:39:35;;;;;;;20.15;18.15;;;14.20;99.90;;;;;;4982985;28;20058;-48
2022/09/23 09:42:03;;;;;;;20.63;17.67;;;14.20;99.90;;;;;;4977810;28;20057;-47
2022/09/23 09:44:36;;;;;;;20.50;18.30;;;14.30;99.90;;;;;;4992986;28;20519;-47
2022/09/23 09:47:33;;;;;;;22.45;19.45;;;14.30;99.90;;;;;;4969114;28;21005;-48
2022/09/23 09:50:38;;;;;;;21.98;19.35;;;14.30;99.90;;;;;;4989655;28;20572;-50
2022/09/23 09:53:21;;;;;;;22.10;19.80;;;14.30;99.90;;;;;;4982326;28;20576;-47
2022/09/23 09:55:57;;;;;;;22.23;19.92;;;14.40;99.90;;;;;;4980467;28;20504;-52
2022/09/23 09:58:24;;;;;;;21.45;19.15;;;14.40;99.90;;;;;;4994428;28;20061;-47
2022/09/23 10:00:55;;;;;;;22.45;19.30;;;14.40;99.90;;;;;;5047011;28;20130;-46
2022/09/23 10:03:42;;;;;;;23.85;21.33;;;14.40;99.90;;;;;;5060290;28;20048;-47
2022/09/23 10:06:35;;;;;;;20.90;18.48;;;14.60;99.90;;;;;;5050022;28;20147;-48
2022/09/23 10:09:16;;;;;;;22.75;19.40;;;14.60;99.90;;;;;;5043357;28;20049;-49
2022/09/23 10:12:09;;;;;;;23.00;20.42;;;14.70;99.90;;;;;;5052058;28;20056;-48
2022/09/23 10:14:35;;;;;;;23.35;19.17;;;14.80;99.90;;;;;;5030952;28;20095;-48
2022/09/23 10:17:05;;;;;;;20.30;18.33;;;14.90;99.90;;;;;;5058229;28;20056;-47
2022/09/23 10:19:33;;;;;;;20.08;18.08;;;14.90;99.90;;;;;;5055779;28;20487;-47
2022/09/23 10:22:03;;;;;;;21.10;18.35;;;15.00;99.90;;;;;;5063006;28;20044;-48
2022/09/23 10:24:36;;;;;;;20.98;18.60;;;15.10;99.90;;;;;;5057374;28;20052;-50
2022/09/23 10:27:10;;;;;;;22.60;19.23;;;15.20;99.90;;;;;;5033887;28;20056;-47
2022/09/23 10:29:45;;;;;;;20.42;18.52;;;15.30;99.90;;;;;;5048155;28;20076;-55
2022/09/23 10:32:30;;;;;;;22.58;19.88;;;15.30;99.90;;;;;;5056931;28;20086;-54
2022/09/23 10:35:08;;;;;;;20.25;18.17;;;15.40;99.90;;;;;;5053332;28;20056;-51
2022/09/23 10:37:36;;;;;;;21.17;18.67;;;15.40;99.90;;;;;;5050949;28;20056;-47
2022/09/23 10:46:36;;;;;;;20.98;18.50;;;15.60;99.90;;;;;;5062620;28;20055;-48
2022/09/23 10:47:00;;;;;;;20.20;18.13;;;15.60;99.90;;;;;;5050267;28;20067;-51
2022/09/23 10:49:53;;;;;;;19.95;18.13;;;15.60;99.90;;;;;;5045689;28;20072;-51
2022/09/23 10:52:37;;;;;;;20.60;18.50;;;15.60;99.90;;;;;;5058012;28;20442;-47
2022/09/23 10:55:37;;;;;;;22.58;20.30;;;15.70;99.90;;;;;;5061105;28;20044;-49
2022/09/23 10:58:12;;;;;;;21.73;19.60;;;15.70;99.90;;;;;;5049067;28;20095;-48
2022/09/23 11:01:08;;;;;;;21.30;19.05;;;15.60;99.90;;;;;;5050730;28;20041;-49
2022/09/23 11:03:58;;;;;;;21.40;19.10;;;15.60;99.90;;;;;;5056715;28;20045;-47
2022/09/23 11:06:59;;;;;;;20.35;18.27;;;15.60;99.90;;;;;;5056023;28;20080;-50
2022/09/23 11:09:33;;;;;;;23.40;18.65;;;15.60;99.90;;;;;;5058829;28;20079;-49
2022/09/23 11:12:17;;;;;;;20.52;18.52;;;15.70;99.90;;;;;;5040677;28;20053;-48
2022/09/23 11:14:50;;;;;;;21.08;18.88;;;15.70;99.90;;;;;;5057489;28;20045;-48
2022/09/23 11:17:44;;;;;;;21.40;19.30;;;15.70;99.90;;;;;;5055924;28;20062;-48
2022/09/23 11:20:37;;;;;;;25.65;21.38;;;15.60;99.90;;;;;;5053463;28;20869;-49
2022/09/23 11:23:25;;;;;;;24.27;21.50;;;15.60;99.90;;;;;;5053691;28;20048;-51
2022/09/23 11:26:06;;;;;;;24.13;21.52;;;15.60;99.90;;;;;;5034342;28;20477;-48
2022/09/23 11:28:57;;;;;;;25.20;22.60;;;15.50;99.90;;;;;;5057002;28;20048;-49
2022/09/23 11:31:49;;;;;;;26.88;22.50;;;15.50;99.90;;;;;;5051119;28;20582;-50
2022/09/23 11:34:18;;;;;;;27.48;22.42;;;15.50;99.90;;;;;;5039493;28;20495;-50
2022/09/23 11:39:21;;;;;;;24.13;21.57;;;15.60;99.90;;;;;;5073836;28;20060;-49
2022/09/23 11:41:51;;;;;;;25.55;22.83;;;15.50;99.90;;;;;;5070109;28;20040;-47
2022/09/23 11:44:34;;;;;;;25.40;21.98;;;15.50;99.90;;;;;;5072018;28;20052;-49
2022/09/23 11:47:23;;;;;;;26.88;23.27;;;15.50;99.90;;;;;;5074615;28;20056;-49
2022/09/23 11:49:53;;;;;;;32.22;26.98;;;15.50;99.90;;;;;;5076342;28;20039;-53
2022/09/23 11:52:47;;;;;;;40.60;35.33;;;15.50;99.90;;;;;;5068243;28;20500;-53
2022/09/23 11:55:23;;;;;;;41.47;34.33;;;15.50;99.90;;;;;;5066474;28;20053;-51
2022/09/23 11:58:19;;;;;;;37.92;32.80;;;15.50;99.90;;;;;;5077580;28;20131;-50
2022/09/23 12:01:06;;;;;;;36.08;30.50;;;15.60;99.90;;;;;;5069454;28;20098;-47
2022/09/23 12:03:51;;;;;;;42.15;34.33;;;15.60;99.90;;;;;;5072913;28;20097;-49
2022/09/23 12:06:31;;;;;;;39.83;32.10;;;15.60;99.90;;;;;;5065243;28;20052;-49
2022/09/23 12:09:07;;;;;;;41.63;31.92;;;15.70;99.90;;;;;;5057536;28;20084;-49
2022/09/23 12:11:42;;;;;;;35.20;31.38;;;15.70;99.90;;;;;;5047662;28;20084;-52
2022/09/23 12:14:25;;;;;;;39.10;29.90;;;15.80;99.90;;;;;;5068168;28;20106;-49
2022/09/23 12:17:01;;;;;;;31.27;27.92;;;15.90;99.90;;;;;;5081967;28;20155;-48
2022/09/23 12:19:54;;;;;;;32.40;27.83;;;16.00;99.90;;;;;;5065973;28;20067;-48
2022/09/23 12:22:30;;;;;;;28.25;24.40;;;16.00;99.90;;;;;;5071069;28;20510;-53
2022/09/23 12:25:16;;;;;;;26.52;23.70;;;16.00;99.90;;;;;;5055274;28;20048;-52
2022/09/23 12:27:49;;;;;;;27.08;24.05;;;16.00;99.90;;;;;;5071084;28;20055;-50
2022/09/23 12:30:21;;;;;;;27.85;23.90;;;16.00;99.90;;;;;;5040066;28;20044;-50
2022/09/23 12:32:48;;;;;;;26.25;23.25;;;16.00;99.90;;;;;;5079216;28;20117;-50
2022/09/23 12:35:36;;;;;;;24.70;22.17;;;16.00;99.90;;;;;;5081531;28;20101;-53
2022/09/23 12:38:12;;;;;;;24.67;22.17;;;16.00;99.90;;;;;;5063089;28;20056;-49
2022/09/23 12:40:43;;;;;;;24.55;21.48;;;16.00;99.90;;;;;;5052408;28;20049;-52
2022/09/23 12:43:30;;;;;;;24.08;21.80;;;16.00;99.90;;;;;;5051599;28;20059;-48
2022/09/23 12:46:24;;;;;;;23.35;20.85;;;15.90;99.90;;;;;;5059355;28;20131;-52
2022/09/23 12:48:56;;;;;;;23.45;20.83;;;15.90;99.90;;;;;;5059730;28;20052;-53
2022/09/23 12:51:27;;;;;;;24.38;22.05;;;15.90;99.90;;;;;;5057577;28;20049;-49
2022/09/23 12:53:58;;;;;;;23.65;21.27;;;15.90;99.90;;;;;;5056718;28;20102;-49
2022/09/23 12:56:50;;;;;;;22.25;19.98;;;15.80;99.90;;;;;;5057522;28;20056;-48
2022/09/23 12:59:28;;;;;;;22.23;20.00;;;15.80;99.90;;;;;;5038985;28;20056;-52
2022/09/23 13:01:55;;;;;;;22.40;20.35;;;15.80;99.90;;;;;;5053562;28;20148;-51
2022/09/23 13:07:33;;;;;;;22.67;20.65;;;15.70;99.90;;;;;;5044957;28;20064;-51
2022/09/23 13:10:28;;;;;;;23.58;20.95;;;15.70;99.90;;;;;;5052009;28;20415;-51
2022/09/23 13:12:56;;;;;;;24.60;22.08;;;15.60;99.90;;;;;;4958571;28;20544;-49
2022/09/23 13:15:34;;;;;;;23.58;21.25;;;15.50;99.90;;;;;;4959418;28;20058;-48
2022/09/23 13:18:19;;;;;;;22.95;20.33;;;15.50;99.90;;;;;;4959131;28;20165;-50
2022/09/23 13:20:55;;;;;;;22.58;20.35;;;15.40;99.90;;;;;;4946707;28;20571;-51